Time;durP1;ratioP1;P1;durP2;ratioP2;P2;SDS_P1;SDS_P2;PMS_P1;PMS_P2;Temp;Humidity;BMP_temperature;BMP_pressure;BME280_temperature;BME280_humidity;BME280_pressure;Samples;Min_cycle;Max_cycle;Signal;HPM_P1;HPM_P2
2022/03/07 00:00:19;;;;;;;24.33;7.97;;;;;;;;;;5079320;28;20059;-64
2022/03/07 00:02:47;;;;;;;24.00;9.85;;;;;;;;;;5078386;28;20159;-64
2022/03/07 00:05:15;;;;;;;25.63;10.18;;;;;;;;;;5079358;28;20027;-64
2022/03/07 00:07:43;;;;;;;20.70;8.85;;;;;;;;;;5079339;28;20066;-64
2022/03/07 00:10:10;;;;;;;23.45;10.20;;;;;;;;;;5079042;28;20020;-64
2022/03/07 00:12:38;;;;;;;30.13;9.15;;;;;;;;;;5079209;28;20078;-64
2022/03/07 00:15:05;;;;;;;28.45;10.85;;;;;;;;;;5079183;28;20024;-64
2022/03/07 00:17:33;;;;;;;28.35;10.65;;;;;;;;;;5079129;28;20414;-65
2022/03/07 00:20:00;;;;;;;30.63;12.38;;;;;;;;;;5078064;28;20321;-64
2022/03/07 00:22:28;;;;;;;28.63;12.50;;;;;;;;;;5079027;28;20039;-64
2022/03/07 00:24:55;;;;;;;27.77;11.25;;;;;;;;;;5079075;28;20051;-63
2022/03/07 00:27:23;;;;;;;26.90;9.60;;;;;;;;;;5079012;28;20016;-64
2022/03/07 00:29:50;;;;;;;24.10;9.00;;;;;;;;;;5078899;28;20425;-63
2022/03/07 00:32:18;;;;;;;18.75;7.72;;;;;;;;;;5078956;28;20029;-64
2022/03/07 00:34:46;;;;;;;17.10;7.43;;;;;;;;;;5078855;28;20091;-64
2022/03/07 00:37:14;;;;;;;19.73;8.60;;;;;;;;;;5077777;28;20020;-63
2022/03/07 00:39:42;;;;;;;22.48;8.73;;;;;;;;;;5079081;28;20299;-64
2022/03/07 00:42:11;;;;;;;21.20;9.20;;;;;;;;;;5078668;28;20146;-64
2022/03/07 00:44:38;;;;;;;23.02;9.70;;;;;;;;;;5080346;28;20036;-64
2022/03/07 00:47:06;;;;;;;28.90;10.27;;;;;;;;;;5078713;28;20048;-64
2022/03/07 00:49:34;;;;;;;21.52;9.60;;;;;;;;;;5078635;28;20426;-64
2022/03/07 00:52:01;;;;;;;25.00;10.98;;;;;;;;;;5078659;28;20412;-64
2022/03/07 00:54:29;;;;;;;28.27;11.32;;;;;;;;;;5078551;28;20363;-64
2022/03/07 00:56:56;;;;;;;32.08;13.93;;;;;;;;;;5077443;28;20493;-64
2022/03/07 00:59:22;;;;;;;30.23;14.10;;;;;;;;;;5078199;28;20119;-64
2022/03/07 01:01:49;;;;;;;25.75;12.40;;;;;;;;;;5077293;28;20079;-64
2022/03/07 01:04:16;;;;;;;30.08;12.10;;;;;;;;;;5078259;28;20025;-64
2022/03/07 01:06:44;;;;;;;25.13;12.73;;;;;;;;;;5076837;28;20078;-64
2022/03/07 01:09:15;;;;;;;26.27;10.52;;;;;;;;;;5077734;28;20021;-64
2022/03/07 01:11:43;;;;;;;19.52;8.75;;;;;;;;;;5078185;28;20106;-64
2022/03/07 01:14:11;;;;;;;17.05;7.57;;;;;;;;;;5076977;28;20029;-64
2022/03/07 01:16:38;;;;;;;21.67;7.15;;;;;;;;;;5078108;28;20302;-64
2022/03/07 01:19:07;;;;;;;17.77;7.03;;;;;;;;;;5078064;28;20017;-64
2022/03/07 01:21:35;;;;;;;14.68;6.22;;;;;;;;;;5078212;28;20131;-65
2022/03/07 01:24:02;;;;;;;19.27;8.38;;;;;;;;;;5076822;28;20086;-64
2022/03/07 01:26:30;;;;;;;19.52;8.38;;;;;;;;;;5077791;28;20082;-64
2022/03/07 01:28:57;;;;;;;17.30;7.38;;;;;;;;;;5077810;28;20059;-64
2022/03/07 01:31:25;;;;;;;11.68;4.60;;;;;;;;;;5076656;28;20435;-67
2022/03/07 01:33:53;;;;;;;11.80;4.70;;;;;;;;;;5077655;28;20027;-64
2022/03/07 01:36:20;;;;;;;13.60;5.55;;;;;;;;;;5077650;28;20028;-64
2022/03/07 01:38:48;;;;;;;18.85;8.35;;;;;;;;;;5077628;28;20340;-64
2022/03/07 01:41:15;;;;;;;18.08;9.50;;;;;;;;;;5076214;28;20032;-64
2022/03/07 01:43:43;;;;;;;38.42;20.25;;;;;;;;;;5077145;28;20027;-65
2022/03/07 01:46:11;;;;;;;38.58;18.60;;;;;;;;;;5076374;28;20109;-66
2022/03/07 01:48:39;;;;;;;39.60;20.63;;;;;;;;;;5077451;28;20380;-66
2022/03/07 01:51:07;;;;;;;31.05;14.80;;;;;;;;;;5077426;28;20104;-67
2022/03/07 01:53:35;;;;;;;43.05;21.83;;;;;;;;;;5076236;28;20028;-67
2022/03/07 01:56:02;;;;;;;29.05;12.95;;;;;;;;;;5076217;28;20028;-65
2022/03/07 01:58:29;;;;;;;29.00;15.05;;;;;;;;;;5077150;28;20032;-64
2022/03/07 02:00:55;;;;;;;31.50;19.70;;;;;;;;;;5077144;28;20078;-63
2022/03/07 02:03:22;;;;;;;46.90;29.80;;;;;;;;;;5076991;28;20025;-63
2022/03/07 02:05:51;;;;;;;64.95;41.00;;;;;;;;;;5076198;28;20386;-63
2022/03/07 02:08:19;;;;;;;52.25;35.90;;;;;;;;;;5077054;28;20096;-63
2022/03/07 02:10:47;;;;;;;103.88;71.93;;;;;;;;;;5072764;28;20444;-64
2022/03/07 02:13:15;;;;;;;120.07;87.07;;;;;;;;;;5076489;28;20056;-63
2022/03/07 02:15:43;;;;;;;123.68;87.22;;;;;;;;;;5076838;28;20017;-64
2022/03/07 02:18:10;;;;;;;101.65;73.07;;;;;;;;;;5076780;28;20142;-65
2022/03/07 02:20:43;;;;;;;52.38;37.60;;;;;;;;;;5076376;28;20089;-64
2022/03/07 02:23:11;;;;;;;24.65;16.50;;;;;;;;;;5076801;28;20028;-65
2022/03/07 02:25:38;;;;;;;24.13;13.77;;;;;;;;;;5075507;28;20051;-64
2022/03/07 02:28:06;;;;;;;23.50;12.02;;;;;;;;;;5076715;28;20433;-64
2022/03/07 02:30:33;;;;;;;16.77;10.27;;;;;;;;;;5075499;28;20036;-63
2022/03/07 02:33:01;;;;;;;19.35;8.50;;;;;;;;;;5070354;28;20317;-64
2022/03/07 02:35:28;;;;;;;19.83;9.98;;;;;;;;;;5067039;28;20059;-66
2022/03/07 02:37:56;;;;;;;15.82;9.13;;;;;;;;;;5075264;28;20328;-67
2022/03/07 02:40:27;;;;;;;16.20;8.85;;;;;;;;;;5074993;28;20025;-69
2022/03/07 02:42:54;;;;;;;40.28;28.40;;;;;;;;;;5076329;28;20107;-66
2022/03/07 02:45:23;;;;;;;60.05;40.97;;;;;;;;;;5075424;28;20735;-67
2022/03/07 02:47:51;;;;;;;17.98;9.70;;;;;;;;;;5075210;28;20031;-68
2022/03/07 02:50:18;;;;;;;304.25;83.22;;;;;;;;;;5075227;28;20048;-68
2022/03/07 02:52:46;;;;;;;221.75;78.50;;;;;;;;;;5076172;28;20092;-68
2022/03/07 02:55:13;;;;;;;55.70;28.67;;;;;;;;;;5067794;28;20155;-70
2022/03/07 02:57:41;;;;;;;27.15;15.38;;;;;;;;;;5074215;28;20048;-68
2022/03/07 03:00:09;;;;;;;37.30;21.20;;;;;;;;;;5076039;28;20049;-68
2022/03/07 03:02:37;;;;;;;34.05;20.45;;;;;;;;;;5056115;28;20429;-68
2022/03/07 03:05:05;;;;;;;24.48;14.55;;;;;;;;;;5055028;28;20017;-67
2022/03/07 03:07:32;;;;;;;22.77;14.90;;;;;;;;;;5056053;28;20028;-68
2022/03/07 03:10:00;;;;;;;20.35;12.90;;;;;;;;;;5081601;28;20028;-68
2022/03/07 03:12:28;;;;;;;25.38;14.05;;;;;;;;;;5076602;28;20021;-68
2022/03/07 03:14:55;;;;;;;28.33;17.55;;;;;;;;;;5075937;28;20036;-69
2022/03/07 03:17:24;;;;;;;26.80;17.08;;;;;;;;;;5069261;28;20028;-69
2022/03/07 03:19:52;;;;;;;34.42;19.85;;;;;;;;;;5054838;28;20021;-69
2022/03/07 03:22:19;;;;;;;38.78;21.63;;;;;;;;;;5055383;28;20036;-69
2022/03/07 03:24:50;;;;;;;29.65;17.73;;;;;;;;;;5059002;28;20024;-69
2022/03/07 03:27:18;;;;;;;29.02;17.42;;;;;;;;;;5095766;28;20020;-66
2022/03/07 03:29:46;;;;;;;29.88;16.85;;;;;;;;;;5095590;28;20020;-68
2022/03/07 03:32:13;;;;;;;20.05;11.40;;;;;;;;;;5095716;28;20024;-68
2022/03/07 03:34:44;;;;;;;16.33;9.13;;;;;;;;;;5095741;28;20020;-71
2022/03/07 03:37:12;;;;;;;15.05;7.03;;;;;;;;;;5095471;28;20048;-68
2022/03/07 03:39:39;;;;;;;14.73;8.52;;;;;;;;;;5095730;28;20024;-66
2022/03/07 03:42:07;;;;;;;12.90;6.18;;;;;;;;;;5095556;28;20056;-70
2022/03/07 03:44:34;;;;;;;17.15;7.35;;;;;;;;;;5095554;28;20051;-67
2022/03/07 03:47:05;;;;;;;16.17;8.57;;;;;;;;;;5095634;28;20843;-70
2022/03/07 03:49:33;;;;;;;14.55;8.77;;;;;;;;;;5089933;28;20020;-70
2022/03/07 03:52:01;;;;;;;17.48;10.15;;;;;;;;;;5074071;28;20028;-70
2022/03/07 03:54:28;;;;;;;24.17;15.13;;;;;;;;;;5075344;28;20051;-69
2022/03/07 03:56:56;;;;;;;18.50;11.27;;;;;;;;;;5075061;28;20028;-71
2022/03/07 03:59:22;;;;;;;22.95;15.38;;;;;;;;;;5075078;28;20516;-68
2022/03/07 04:01:49;;;;;;;19.63;10.38;;;;;;;;;;5075172;28;20029;-69
2022/03/07 04:04:17;;;;;;;17.60;9.63;;;;;;;;;;5073845;28;20086;-70
2022/03/07 04:06:45;;;;;;;68.00;44.63;;;;;;;;;;5075148;28;20047;-69
2022/03/07 04:09:21;;;;;;;35.20;22.98;;;;;;;;;;5073860;28;20443;-70
2022/03/07 04:11:49;;;;;;;34.67;23.20;;;;;;;;;;5074680;28;20029;-70
2022/03/07 04:14:17;;;;;;;15.27;9.60;;;;;;;;;;5074907;28;20104;-71
2022/03/07 04:16:45;;;;;;;15.50;9.48;;;;;;;;;;5058156;28;20103;-69
2022/03/07 04:19:13;;;;;;;15.05;8.00;;;;;;;;;;5054943;28;20079;-69
2022/03/07 04:21:40;;;;;;;16.27;8.15;;;;;;;;;;5055363;28;20033;-76
2022/03/07 04:24:09;;;;;;;16.73;8.95;;;;;;;;;;5054986;28;20021;-71
2022/03/07 04:26:36;;;;;;;10.63;5.68;;;;;;;;;;5053590;28;20295;-70
2022/03/07 04:29:10;;;;;;;10.93;4.90;;;;;;;;;;5054672;28;20021;-69
2022/03/07 04:31:38;;;;;;;7.05;3.10;;;;;;;;;;5053135;28;20050;-71
2022/03/07 04:34:07;;;;;;;10.15;4.47;;;;;;;;;;5066045;28;20024;-70
2022/03/07 04:36:38;;;;;;;8.68;4.70;;;;;;;;;;5075571;28;20024;-71
2022/03/07 04:39:06;;;;;;;10.73;5.57;;;;;;;;;;5077673;28;20024;-71
2022/03/07 04:41:34;;;;;;;12.63;6.95;;;;;;;;;;5076394;28;20028;-72
2022/03/07 04:44:02;;;;;;;17.50;8.45;;;;;;;;;;5074021;28;20035;-70
2022/03/07 04:46:29;;;;;;;15.65;7.80;;;;;;;;;;5073491;28;20024;-69
2022/03/07 04:48:57;;;;;;;14.48;8.75;;;;;;;;;;5073530;28;20056;-70
2022/03/07 04:51:25;;;;;;;18.48;9.52;;;;;;;;;;5076152;28;20028;-70
2022/03/07 04:53:52;;;;;;;21.65;10.35;;;;;;;;;;5094921;28;20035;-69
2022/03/07 04:56:20;;;;;;;27.33;11.45;;;;;;;;;;5095680;28;20111;-70
2022/03/07 04:58:46;;;;;;;26.17;12.68;;;;;;;;;;5095707;28;20067;-70
2022/03/07 05:01:14;;;;;;;23.08;10.95;;;;;;;;;;5095099;28;20050;-70
2022/03/07 05:03:41;;;;;;;19.45;9.10;;;;;;;;;;5095836;28;20032;-69
2022/03/07 05:06:09;;;;;;;18.67;8.05;;;;;;;;;;5095692;28;20031;-70
2022/03/07 05:08:39;;;;;;;14.18;7.18;;;;;;;;;;5095151;28;20039;-71
2022/03/07 05:11:07;;;;;;;15.75;7.07;;;;;;;;;;5095583;28;20020;-70
2022/03/07 05:13:34;;;;;;;17.92;8.77;;;;;;;;;;5095593;28;20032;-71
2022/03/07 05:16:05;;;;;;;17.67;9.00;;;;;;;;;;5095140;28;20079;-69
2022/03/07 05:18:33;;;;;;;18.10;10.07;;;;;;;;;;5095484;28;20035;-71
2022/03/07 05:21:01;;;;;;;16.85;9.23;;;;;;;;;;5095168;28;20086;-71
2022/03/07 05:23:28;;;;;;;14.13;6.47;;;;;;;;;;5095424;28;20028;-70
2022/03/07 05:25:56;;;;;;;14.02;6.93;;;;;;;;;;5074430;28;20059;-69
2022/03/07 05:28:23;;;;;;;18.58;8.88;;;;;;;;;;5063935;28;20077;-70
2022/03/07 05:30:50;;;;;;;17.00;8.38;;;;;;;;;;5067493;28;20028;-72
2022/03/07 05:33:18;;;;;;;17.33;9.68;;;;;;;;;;5066178;28;20179;-70
2022/03/07 05:35:46;;;;;;;14.85;6.53;;;;;;;;;;5056503;28;20082;-69
2022/03/07 05:38:13;;;;;;;13.05;6.18;;;;;;;;;;5073773;28;20028;-69
2022/03/07 05:40:43;;;;;;;49.78;30.00;;;;;;;;;;5076824;28;20321;-70
2022/03/07 05:43:12;;;;;;;45.10;25.02;;;;;;;;;;5075529;28;20027;-71
2022/03/07 05:45:40;;;;;;;49.05;28.58;;;;;;;;;;5073482;28;20088;-70
2022/03/07 05:48:08;;;;;;;30.25;16.77;;;;;;;;;;5065247;28;20025;-70
2022/03/07 05:50:35;;;;;;;37.97;18.02;;;;;;;;;;5065203;28;20017;-70
2022/03/07 05:53:03;;;;;;;43.10;23.50;;;;;;;;;;5068087;28;20025;-71
2022/03/07 05:55:30;;;;;;;38.10;20.38;;;;;;;;;;5075617;28;20365;-71
2022/03/07 05:58:00;;;;;;;30.05;16.42;;;;;;;;;;5070986;28;20042;-70
2022/03/07 06:00:28;;;;;;;41.78;21.33;;;;;;;;;;5075236;28;20036;-72
2022/03/07 06:02:56;;;;;;;43.55;24.02;;;;;;;;;;5066481;28;20044;-70
2022/03/07 06:05:24;;;;;;;41.13;22.98;;;;;;;;;;5057625;28;20021;-72
2022/03/07 06:07:51;;;;;;;39.63;23.73;;;;;;;;;;5055239;28;20050;-70
2022/03/07 06:10:19;;;;;;;27.35;15.52;;;;;;;;;;5055002;28;20025;-71
2022/03/07 06:12:46;;;;;;;25.85;14.55;;;;;;;;;;5055709;28;20088;-71
2022/03/07 06:15:13;;;;;;;24.65;15.45;;;;;;;;;;5064275;28;20043;-71
2022/03/07 06:17:49;;;;;;;18.40;10.43;;;;;;;;;;5065217;28;20417;-71
2022/03/07 06:20:17;;;;;;;16.48;9.98;;;;;;;;;;5064753;28;20104;-71
2022/03/07 06:22:44;;;;;;;18.23;9.32;;;;;;;;;;5060568;28;20104;-70
2022/03/07 06:25:12;;;;;;;21.83;13.20;;;;;;;;;;5056201;28;20025;-71
2022/03/07 06:27:40;;;;;;;20.75;11.95;;;;;;;;;;5056185;28;20060;-69
2022/03/07 06:30:08;;;;;;;17.55;8.88;;;;;;;;;;5058183;28;20021;-68
2022/03/07 06:32:37;;;;;;;17.10;10.43;;;;;;;;;;5072281;28;20421;-67
2022/03/07 06:35:05;;;;;;;19.40;11.40;;;;;;;;;;5075963;28;20021;-67
2022/03/07 06:37:33;;;;;;;12.95;6.97;;;;;;;;;;5074829;28;20017;-69
2022/03/07 06:40:00;;;;;;;12.55;7.35;;;;;;;;;;5075754;28;20020;-67
2022/03/07 06:42:28;;;;;;;14.27;7.35;;;;;;;;;;5075479;28;20056;-70
2022/03/07 06:44:55;;;;;;;13.82;8.88;;;;;;;;;;5074667;28;20324;-67
2022/03/07 06:47:23;;;;;;;13.13;7.80;;;;;;;;;;5075964;28;20451;-68
2022/03/07 06:49:56;;;;;;;12.80;7.53;;;;;;;;;;5075897;28;20021;-68
2022/03/07 06:52:23;;;;;;;16.05;9.60;;;;;;;;;;5074019;28;20322;-70
2022/03/07 06:54:51;;;;;;;27.02;14.18;;;;;;;;;;5074367;28;20032;-68
2022/03/07 06:57:21;;;;;;;9.63;5.80;;;;;;;;;;5073392;28;20090;-69
2022/03/07 06:59:47;;;;;;;8.57;4.97;;;;;;;;;;5047176;28;20071;-68
2022/03/07 07:02:15;;;;;;;8.75;5.55;;;;;;;;;;5062517;28;20064;-68
2022/03/07 07:04:43;;;;;;;25.70;12.82;;;;;;;;;;5038237;28;20044;-67
2022/03/07 07:07:11;;;;;;;24.85;12.23;;;;;;;;;;5056604;28;20025;-68
2022/03/07 07:09:38;;;;;;;13.98;6.95;;;;;;;;;;5036474;28;20021;-68
2022/03/07 07:12:06;;;;;;;13.35;6.60;;;;;;;;;;5053004;28;20037;-68
2022/03/07 07:14:34;;;;;;;10.60;5.53;;;;;;;;;;5052471;28;20108;-70
2022/03/07 07:17:03;;;;;;;13.82;6.35;;;;;;;;;;5061199;28;20047;-71
2022/03/07 07:19:31;;;;;;;11.02;4.20;;;;;;;;;;5058428;28;20025;-69
2022/03/07 07:21:58;;;;;;;15.20;7.72;;;;;;;;;;5052591;28;20029;-70
2022/03/07 07:24:26;;;;;;;15.82;6.35;;;;;;;;;;5053310;28;20425;-68
2022/03/07 07:26:54;;;;;;;8.77;4.20;;;;;;;;;;5062514;28;20033;-68
2022/03/07 07:29:25;;;;;;;9.65;4.18;;;;;;;;;;5071360;28;20122;-71
2022/03/07 07:31:53;;;;;;;12.90;3.60;;;;;;;;;;5072158;28;20039;-71
2022/03/07 07:34:21;;;;;;;8.40;3.20;;;;;;;;;;5055912;28;20120;-70
2022/03/07 07:36:49;;;;;;;13.05;4.20;;;;;;;;;;5055913;28;20036;-68
2022/03/07 07:39:16;;;;;;;8.65;3.92;;;;;;;;;;5073148;28;20032;-69
2022/03/07 07:41:44;;;;;;;11.52;4.10;;;;;;;;;;5068274;28;20069;-72
2022/03/07 07:44:11;;;;;;;11.70;5.20;;;;;;;;;;5065423;28;20103;-71
2022/03/07 07:46:39;;;;;;;9.13;4.05;;;;;;;;;;5064400;28;20096;-71
2022/03/07 07:49:06;;;;;;;9.13;4.43;;;;;;;;;;5064643;28;20010;-69
2022/03/07 07:51:34;;;;;;;13.02;5.60;;;;;;;;;;5064041;28;20075;-67
2022/03/07 07:54:02;;;;;;;7.68;4.13;;;;;;;;;;5062494;28;20330;-69
2022/03/07 07:56:29;;;;;;;10.75;5.00;;;;;;;;;;5065345;28;20035;-68
2022/03/07 07:58:56;;;;;;;6.60;2.15;;;;;;;;;;5065010;28;20032;-68
2022/03/07 08:01:23;;;;;;;9.23;2.97;;;;;;;;;;5062479;28;20029;-71
2022/03/07 08:03:51;;;;;;;8.48;4.32;;;;;;;;;;5063417;28;20021;-70
2022/03/07 08:06:20;;;;;;;13.70;7.50;;;;;;;;;;5064460;28;20025;-70
2022/03/07 08:08:48;;;;;;;8.10;4.30;;;;;;;;;;5064492;28;20032;-72
2022/03/07 08:11:15;;;;;;;9.60;4.05;;;;;;;;;;5067029;28;20016;-72
2022/03/07 08:13:43;;;;;;;9.02;4.30;;;;;;;;;;5065364;28;20021;-70
2022/03/07 08:16:18;;;;;;;10.27;3.53;;;;;;;;;;5066117;28;20021;-75
2022/03/07 08:18:45;;;;;;;13.13;5.40;;;;;;;;;;5062432;28;20028;-72
2022/03/07 08:21:13;;;;;;;11.05;5.20;;;;;;;;;;5062080;28;20040;-71
2022/03/07 08:23:41;;;;;;;10.60;5.05;;;;;;;;;;5065954;28;20410;-72
2022/03/07 08:26:08;;;;;;;8.85;4.47;;;;;;;;;;5064424;28;20029;-71
2022/03/07 08:28:36;;;;;;;8.68;4.38;;;;;;;;;;5066134;28;20020;-72
2022/03/07 08:31:03;;;;;;;8.82;4.78;;;;;;;;;;5065596;28;20029;-73
2022/03/07 08:33:32;;;;;;;8.13;4.50;;;;;;;;;;5065549;28;20067;-73
2022/03/07 08:36:00;;;;;;;7.20;3.72;;;;;;;;;;5069224;28;20075;-74
2022/03/07 08:38:27;;;;;;;8.88;4.10;;;;;;;;;;5075219;28;20029;-72
2022/03/07 08:40:55;;;;;;;8.73;4.90;;;;;;;;;;5064807;28;20036;-73
2022/03/07 08:43:23;;;;;;;8.80;4.25;;;;;;;;;;5056486;28;20033;-74
2022/03/07 08:45:50;;;;;;;8.48;4.72;;;;;;;;;;5057585;28;20032;-72
